Time,TemperatureF,DewpointF,PressureIn,WindDirection,WindDirectionDegrees,WindSpeedMPH,WindSpeedGustMPH,Humidity,HourlyPrecipIn,Conditions,Clouds,dailyrainin,SolarRadiationWatts/m^2,SoftwareType,DateUTC
2013-03-06 00:11:00,63.9,57.0,29.99,WSW,237,6.0,11.0,79,0.00,,,0.00,0,weatherlink.com 1.10,2013-03-06 05:11:00,
2013-03-06 00:26:00,64.0,57.0,29.99,SSW,213,0.0,11.0,79,0.00,,,0.00,0,weatherlink.com 1.10,2013-03-06 05:26:00,
2013-03-06 00:41:00,63.8,58.0,29.98,SSW,212,2.0,13.0,80,0.00,,,0.00,0,weatherlink.com 1.10,2013-03-06 05:41:00,
2013-03-06 00:56:00,63.5,58.0,29.98,WSW,240,9.0,12.0,81,0.00,,,0.00,0,weatherlink.com 1.10,2013-03-06 05:56:00,
2013-03-06 01:11:00,63.3,57.0,29.97,SW,219,6.0,10.0,81,0.00,,,0.00,0,weatherlink.com 1.10,2013-03-06 06:11:00,
2013-03-06 01:26:00,63.1,58.0,29.96,SW,230,6.0,12.0,82,0.00,,,0.00,0,weatherlink.com 1.10,2013-03-06 06:26:00,
2013-03-06 01:41:00,62.9,57.0,29.96,SSW,199,1.0,12.0,82,0.00,,,0.00,0,weatherlink.com 1.10,2013-03-06 06:41:00,
2013-03-06 01:56:00,62.8,58.0,29.95,SW,234,1.0,14.0,83,0.00,,,0.00,0,weatherlink.com 1.10,2013-03-06 06:56:00,
2013-03-06 02:12:00,62.4,57.0,29.95,SW,226,2.0,7.0,83,0.00,,,0.00,0,weatherlink.com 1.10,2013-03-06 07:12:00,
2013-03-06 02:27:00,62.1,57.0,29.94,West,259,0.0,10.0,84,0.00,,,0.00,0,weatherlink.com 1.10,2013-03-06 07:27:00,
2013-03-06 02:42:00,61.9,58.0,29.93,WSW,246,2.0,9.0,86,0.00,,,0.00,0,weatherlink.com 1.10,2013-03-06 07:42:00,
2013-03-06 02:57:00,61.7,58.0,29.93,WSW,249,4.0,9.0,86,0.00,,,0.00,0,weatherlink.com 1.10,2013-03-06 07:57:00,
2013-03-06 03:12:00,61.5,58.0,29.93,SSW,213,2.0,9.0,87,0.00,,,0.00,0,weatherlink.com 1.10,2013-03-06 08:12:00,
2013-03-06 03:27:00,61.5,58.0,29.93,WSW,240,1.0,10.0,88,0.00,,,0.00,0,weatherlink.com 1.10,2013-03-06 08:27:00,
2013-03-06 03:42:00,61.4,58.0,29.92,SSW,195,0.0,8.0,88,0.00,,,0.00,0,weatherlink.com 1.10,2013-03-06 08:42:00,
2013-03-06 03:57:00,61.4,58.0,29.91,West,269,3.0,6.0,88,0.00,,,0.00,0,weatherlink.com 1.10,2013-03-06 08:57:00,
2013-03-06 04:12:00,61.3,58.0,29.91,South,182,0.0,9.0,89,0.00,,,0.00,0,weatherlink.com 1.10,2013-03-06 09:12:00,
2013-03-06 04:27:00,61.3,58.0,29.91,SSW,194,3.0,8.0,89,0.00,,,0.00,0,weatherlink.com 1.10,2013-03-06 09:27:00,
2013-03-06 04:42:00,61.4,59.0,29.92,SW,232,0.0,9.0,90,0.00,,,0.00,0,weatherlink.com 1.10,2013-03-06 09:42:00,
2013-03-06 04:57:00,61.7,59.0,29.92,WSW,248,6.0,7.0,90,0.00,,,0.00,0,weatherlink.com 1.10,2013-03-06 09:57:00,
2013-03-06 05:12:00,62.1,59.0,29.92,WSW,238,0.0,8.0,90,0.00,,,0.00,0,weatherlink.com 1.10,2013-03-06 10:12:00,
2013-03-06 05:27:00,62.7,60.0,29.93,WSW,254,6.0,9.0,90,0.00,,,0.00,0,weatherlink.com 1.10,2013-03-06 10:27:00,
2013-03-06 05:42:00,63.7,61.0,29.94,West,268,3.0,12.0,89,0.00,,,0.00,0,weatherlink.com 1.10,2013-03-06 10:42:00,
2013-03-06 05:57:00,63.7,60.0,29.94,WSW,250,0.0,6.0,88,0.00,,,0.00,0,weatherlink.com 1.10,2013-03-06 10:57:00,
2013-03-06 06:12:00,63.0,58.0,29.94,West,270,1.0,7.0,84,0.00,,,0.00,0,weatherlink.com 1.10,2013-03-06 11:12:00,
2013-03-06 06:27:00,62.4,54.0,29.96,West,280,3.0,8.0,73,0.00,,,0.00,0,weatherlink.com 1.10,2013-03-06 11:27:00,
2013-03-06 06:42:00,62.0,54.0,29.96,West,267,0.0,7.0,74,0.00,,,0.00,0,weatherlink.com 1.10,2013-03-06 11:42:00,
2013-03-06 06:57:00,61.4,54.0,29.98,West,281,3.0,16.0,77,0.00,,,0.00,11,weatherlink.com 1.10,2013-03-06 11:57:00,
2013-03-06 07:12:00,59.5,49.0,30.00,West,261,2.0,11.0,69,0.00,,,0.00,19,weatherlink.com 1.10,2013-03-06 12:12:00,
2013-03-06 07:27:00,57.5,44.0,30.01,NNE,30,4.0,14.0,62,0.00,,,0.00,58,weatherlink.com 1.10,2013-03-06 12:27:00,
2013-03-06 07:42:00,54.8,34.0,30.03,NNE,15,11.0,19.0,45,0.00,,,0.00,121,weatherlink.com 1.10,2013-03-06 12:42:00,
2013-03-06 07:57:00,53.2,30.0,30.05,North,5,2.0,18.0,41,0.00,,,0.00,90,weatherlink.com 1.10,2013-03-06 12:57:00,
2013-03-06 08:12:00,52.6,31.0,30.05,NNE,19,7.0,17.0,44,0.00,,,0.00,114,weatherlink.com 1.10,2013-03-06 13:12:00,
2013-03-06 08:27:00,52.1,31.0,30.07,NNW,333,4.0,17.0,44,0.00,,,0.00,211,weatherlink.com 1.10,2013-03-06 13:27:00,
2013-03-06 08:42:00,52.1,31.0,30.06,NW,325,0.0,23.0,44,0.00,,,0.00,366,weatherlink.com 1.10,2013-03-06 13:42:00,
2013-03-06 08:57:00,52.7,33.0,30.06,North,355,1.0,13.0,47,0.00,,,0.00,415,weatherlink.com 1.10,2013-03-06 13:57:00,
2013-03-06 09:13:00,53.3,32.0,30.06,WNW,294,2.0,17.0,45,0.00,,,0.00,478,weatherlink.com 1.10,2013-03-06 14:13:00,
2013-03-06 09:28:00,54.4,36.0,30.07,NW,325,1.0,9.0,50,0.00,,,0.00,534,weatherlink.com 1.10,2013-03-06 14:28:00,
2013-03-06 09:43:00,55.0,35.0,30.08,WNW,298,7.0,11.0,48,0.00,,,0.00,578,weatherlink.com 1.10,2013-03-06 14:43:00,
2013-03-06 09:58:00,54.5,34.0,30.07,West,277,7.0,12.0,47,0.00,,,0.00,640,weatherlink.com 1.10,2013-03-06 14:58:00,
2013-03-06 10:13:00,55.0,34.0,30.07,West,267,4.0,8.0,46,0.00,,,0.00,693,weatherlink.com 1.10,2013-03-06 15:13:00,
2013-03-06 10:28:00,55.9,33.0,30.07,WSW,250,4.0,10.0,43,0.00,,,0.00,731,weatherlink.com 1.10,2013-03-06 15:28:00,
2013-03-06 10:43:00,56.1,32.0,30.06,NW,309,5.0,9.0,41,0.00,,,0.00,766,weatherlink.com 1.10,2013-03-06 15:43:00,
2013-03-06 10:58:00,56.6,32.0,30.06,SW,232,4.0,10.0,39,0.00,,,0.00,802,weatherlink.com 1.10,2013-03-06 15:58:00,
2013-03-06 11:13:00,58.4,33.0,30.05,WNW,296,3.0,12.0,39,0.00,,,0.00,831,weatherlink.com 1.10,2013-03-06 16:13:00,
2013-03-06 11:28:00,59.1,32.0,30.04,WSW,252,6.0,10.0,36,0.00,,,0.00,854,weatherlink.com 1.10,2013-03-06 16:28:00,
2013-03-06 11:43:00,60.9,31.0,30.03,WNW,288,1.0,15.0,32,0.00,,,0.00,874,weatherlink.com 1.10,2013-03-06 16:43:00,
2013-03-06 11:58:00,61.9,31.0,30.02,NW,317,4.0,11.0,31,0.00,,,0.00,896,weatherlink.com 1.10,2013-03-06 16:58:00,
2013-03-06 12:13:00,62.6,29.0,30.01,WSW,253,2.0,15.0,28,0.00,,,0.00,912,weatherlink.com 1.10,2013-03-06 17:13:00,
2013-03-06 12:28:00,63.4,30.0,30.00,West,261,8.0,10.0,29,0.00,,,0.00,919,weatherlink.com 1.10,2013-03-06 17:28:00,
2013-03-06 12:43:00,64.3,30.0,29.99,WNW,284,5.0,12.0,28,0.00,,,0.00,923,weatherlink.com 1.10,2013-03-06 17:43:00,
2013-03-06 12:58:00,65.5,31.0,29.98,West,275,7.0,14.0,28,0.00,,,0.00,918,weatherlink.com 1.10,2013-03-06 17:58:00,
2013-03-06 13:13:00,65.9,29.0,29.98,WSW,238,3.0,17.0,25,0.00,,,0.00,912,weatherlink.com 1.10,2013-03-06 18:13:00,
2013-03-06 13:28:00,66.2,30.0,29.97,WNW,282,5.0,13.0,26,0.00,,,0.00,896,weatherlink.com 1.10,2013-03-06 18:28:00,
2013-03-06 13:43:00,67.5,32.0,29.96,NNW,331,0.0,11.0,27,0.00,,,0.00,879,weatherlink.com 1.10,2013-03-06 18:43:00,
2013-03-06 13:58:00,67.2,33.0,29.95,WNW,302,5.0,18.0,28,0.00,,,0.00,858,weatherlink.com 1.10,2013-03-06 18:58:00,
2013-03-06 14:13:00,66.6,31.0,29.95,West,265,4.0,24.0,27,0.00,,,0.00,831,weatherlink.com 1.10,2013-03-06 19:13:00,
2013-03-06 14:28:00,66.7,31.0,29.95,WNW,287,4.0,18.0,26,0.00,,,0.00,802,weatherlink.com 1.10,2013-03-06 19:28:00,
2013-03-06 14:43:00,67.0,30.0,29.95,WSW,254,3.0,12.0,25,0.00,,,0.00,772,weatherlink.com 1.10,2013-03-06 19:43:00,
2013-03-06 14:58:00,67.4,31.0,29.94,West,272,6.0,17.0,26,0.00,,,0.00,733,weatherlink.com 1.10,2013-03-06 19:58:00,
2013-03-06 15:13:00,67.4,31.0,29.94,West,265,4.0,11.0,26,0.00,,,0.00,693,weatherlink.com 1.10,2013-03-06 20:13:00,
2013-03-06 15:28:00,67.4,31.0,29.94,SSW,211,7.0,14.0,26,0.00,,,0.00,642,weatherlink.com 1.10,2013-03-06 20:28:00,
2013-03-06 15:43:00,67.2,32.0,29.94,West,275,7.0,15.0,27,0.00,,,0.00,594,weatherlink.com 1.10,2013-03-06 20:43:00,
2013-03-06 15:58:00,67.0,31.0,29.94,West,277,3.0,16.0,26,0.00,,,0.00,543,weatherlink.com 1.10,2013-03-06 20:58:00,
2013-03-06 16:13:00,66.5,31.0,29.94,West,265,0.0,19.0,27,0.00,,,0.00,489,weatherlink.com 1.10,2013-03-06 21:13:00,
2013-03-06 16:28:00,66.1,29.0,29.94,West,263,5.0,20.0,25,0.00,,,0.00,436,weatherlink.com 1.10,2013-03-06 21:28:00,
2013-03-06 16:43:00,65.9,31.0,29.94,WNW,296,5.0,12.0,27,0.00,,,0.00,378,weatherlink.com 1.10,2013-03-06 21:43:00,
2013-03-06 16:58:00,65.5,30.0,29.94,WSW,246,1.0,16.0,26,0.00,,,0.00,316,weatherlink.com 1.10,2013-03-06 21:58:00,
2013-03-06 17:14:00,65.0,29.0,29.94,West,268,3.0,16.0,26,0.00,,,0.00,258,weatherlink.com 1.10,2013-03-06 22:14:00,
2013-03-06 17:29:00,64.8,30.0,29.94,SW,234,11.0,12.0,27,0.00,,,0.00,195,weatherlink.com 1.10,2013-03-06 22:29:00,
2013-03-06 17:44:00,64.2,32.0,29.95,WSW,256,1.0,11.0,30,0.00,,,0.00,127,weatherlink.com 1.10,2013-03-06 22:44:00,
2013-03-06 17:59:00,62.9,33.0,29.96,WNW,286,5.0,7.0,33,0.00,,,0.00,63,weatherlink.com 1.10,2013-03-06 22:59:00,
2013-03-06 18:14:00,60.7,33.0,29.97,WSW,256,1.0,14.0,36,0.00,,,0.00,14,weatherlink.com 1.10,2013-03-06 23:14:00,
2013-03-06 18:29:00,59.2,34.0,29.98,WNW,283,1.0,8.0,39,0.00,,,0.00,5,weatherlink.com 1.10,2013-03-06 23:29:00,
2013-03-06 18:44:00,57.8,35.0,29.99,West,261,4.0,10.0,42,0.00,,,0.00,0,weatherlink.com 1.10,2013-03-06 23:44:00,
2013-03-06 18:59:00,56.7,35.0,30.01,West,275,7.0,9.0,45,0.00,,,0.00,0,weatherlink.com 1.10,2013-03-06 23:59:00,
2013-03-06 19:14:00,56.0,35.0,30.02,West,269,1.0,11.0,46,0.00,,,0.00,0,weatherlink.com 1.10,2013-03-07 00:14:00,
2013-03-06 19:29:00,55.2,36.0,30.02,NW,309,0.0,13.0,48,0.00,,,0.00,0,weatherlink.com 1.10,2013-03-07 00:29:00,
2013-03-06 19:44:00,54.7,35.0,30.03,West,265,0.0,6.0,48,0.00,,,0.00,0,weatherlink.com 1.10,2013-03-07 00:44:00,
2013-03-06 19:59:00,54.2,36.0,30.04,WSW,249,3.0,8.0,50,0.00,,,0.00,0,weatherlink.com 1.10,2013-03-07 00:59:00,
2013-03-06 20:14:00,53.8,35.0,30.05,WNW,284,0.0,8.0,50,0.00,,,0.00,0,weatherlink.com 1.10,2013-03-07 01:14:00,
2013-03-06 20:29:00,53.5,36.0,30.05,West,262,3.0,5.0,52,0.00,,,0.00,0,weatherlink.com 1.10,2013-03-07 01:29:00,
2013-03-06 20:44:00,53.3,36.0,30.06,WSW,253,0.0,5.0,52,0.00,,,0.00,0,weatherlink.com 1.10,2013-03-07 01:44:00,
2013-03-06 20:59:00,53.1,36.0,30.06,WNW,297,1.0,5.0,53,0.00,,,0.00,0,weatherlink.com 1.10,2013-03-07 01:59:00,
2013-03-06 21:14:00,52.9,36.0,30.07,NNE,20,1.0,6.0,54,0.00,,,0.00,0,weatherlink.com 1.10,2013-03-07 02:14:00,
2013-03-06 21:29:00,52.7,37.0,30.07,NNW,333,0.0,9.0,55,0.00,,,0.00,0,weatherlink.com 1.10,2013-03-07 02:29:00,
2013-03-06 21:44:00,52.8,36.0,30.08,NE,35,0.0,7.0,54,0.00,,,0.00,0,weatherlink.com 1.10,2013-03-07 02:44:00,
2013-03-06 21:59:00,52.6,36.0,30.09,NNW,348,0.0,7.0,54,0.00,,,0.00,0,weatherlink.com 1.10,2013-03-07 02:59:00,
2013-03-06 22:14:00,52.3,36.0,30.09,North,355,0.0,5.0,54,0.00,,,0.00,0,weatherlink.com 1.10,2013-03-07 03:14:00,
2013-03-06 22:29:00,51.9,36.0,30.10,NNW,340,2.0,8.0,55,0.00,,,0.00,0,weatherlink.com 1.10,2013-03-07 03:29:00,
2013-03-06 22:44:00,51.7,35.0,30.11,North,11,0.0,13.0,54,0.00,,,0.00,0,weatherlink.com 1.10,2013-03-07 03:44:00,
2013-03-06 22:59:00,51.4,34.0,30.11,North,355,0.0,7.0,52,0.00,,,0.00,0,weatherlink.com 1.10,2013-03-07 03:59:00,
2013-03-06 23:14:00,51.1,33.0,30.11,NW,315,4.0,12.0,51,0.00,,,0.00,0,weatherlink.com 1.10,2013-03-07 04:14:00,
2013-03-06 23:29:00,50.8,32.0,30.11,North,360,2.0,11.0,49,0.00,,,0.00,0,weatherlink.com 1.10,2013-03-07 04:29:00,
2013-03-06 23:44:00,50.3,32.0,30.12,North,360,5.0,11.0,49,0.00,,,0.00,0,weatherlink.com 1.10,2013-03-07 04:44:00,
2013-03-06 23:59:00,49.9,31.0,30.11,North,355,0.0,9.0,49,0.00,,,0.00,0,weatherlink.com 1.10,2013-03-07 04:59:00,